sensor_id;sensor_type;location;lat;lon;timestamp;P1;durP1;ratioP1;P2;durP2;ratioP2
15567;SDS011;7885;42.596;23.044;2023-07-30T00:02:02;5.63;;;3.63;;
15567;SDS011;7885;42.596;23.044;2023-07-30T00:04:29;7.53;;;4.23;;
15567;SDS011;7885;42.596;23.044;2023-07-30T00:06:56;8.90;;;3.43;;
15567;SDS011;7885;42.596;23.044;2023-07-30T00:09:23;7.57;;;3.90;;
15567;SDS011;7885;42.596;23.044;2023-07-30T00:11:51;8.70;;;3.93;;
15567;SDS011;7885;42.596;23.044;2023-07-30T00:14:18;5.83;;;3.10;;
15567;SDS011;7885;42.596;23.044;2023-07-30T00:16:45;6.90;;;3.93;;
15567;SDS011;7885;42.596;23.044;2023-07-30T00:19:12;8.57;;;4.43;;
15567;SDS011;7885;42.596;23.044;2023-07-30T00:21:39;8.73;;;4.33;;
15567;SDS011;7885;42.596;23.044;2023-07-30T00:24:05;7.90;;;4.63;;
15567;SDS011;7885;42.596;23.044;2023-07-30T00:26:32;9.63;;;4.27;;
15567;SDS011;7885;42.596;23.044;2023-07-30T00:29:00;9.10;;;5.17;;
15567;SDS011;7885;42.596;23.044;2023-07-30T00:31:27;9.83;;;5.60;;
15567;SDS011;7885;42.596;23.044;2023-07-30T00:33:54;7.73;;;4.23;;
15567;SDS011;7885;42.596;23.044;2023-07-30T00:36:20;10.83;;;4.90;;
15567;SDS011;7885;42.596;23.044;2023-07-30T00:38:47;9.37;;;4.57;;
15567;SDS011;7885;42.596;23.044;2023-07-30T00:41:14;9.47;;;4.73;;
15567;SDS011;7885;42.596;23.044;2023-07-30T00:43:41;12.83;;;5.63;;
15567;SDS011;7885;42.596;23.044;2023-07-30T00:46:09;10.70;;;6.13;;
15567;SDS011;7885;42.596;23.044;2023-07-30T00:48:36;10.13;;;5.87;;
15567;SDS011;7885;42.596;23.044;2023-07-30T00:51:02;10.93;;;6.43;;
15567;SDS011;7885;42.596;23.044;2023-07-30T00:53:30;6.93;;;4.40;;
15567;SDS011;7885;42.596;23.044;2023-07-30T00:55:57;8.60;;;4.60;;
15567;SDS011;7885;42.596;23.044;2023-07-30T00:58:24;7.77;;;4.67;;
15567;SDS011;7885;42.596;23.044;2023-07-30T01:00:51;9.50;;;4.90;;
15567;SDS011;7885;42.596;23.044;2023-07-30T01:03:20;10.10;;;5.77;;
15567;SDS011;7885;42.596;23.044;2023-07-30T01:05:47;14.23;;;5.33;;
15567;SDS011;7885;42.596;23.044;2023-07-30T01:08:14;11.00;;;5.00;;
15567;SDS011;7885;42.596;23.044;2023-07-30T01:10:40;14.27;;;5.70;;
15567;SDS011;7885;42.596;23.044;2023-07-30T01:13:09;15.23;;;5.53;;
15567;SDS011;7885;42.596;23.044;2023-07-30T01:15:36;11.80;;;5.90;;
15567;SDS011;7885;42.596;23.044;2023-07-30T01:18:03;12.30;;;5.80;;
15567;SDS011;7885;42.596;23.044;2023-07-30T01:20:32;10.93;;;5.67;;
15567;SDS011;7885;42.596;23.044;2023-07-30T01:23:00;13.60;;;5.73;;
15567;SDS011;7885;42.596;23.044;2023-07-30T01:25:27;8.17;;;5.43;;
15567;SDS011;7885;42.596;23.044;2023-07-30T01:27:58;12.23;;;5.77;;
15567;SDS011;7885;42.596;23.044;2023-07-30T01:30:28;12.33;;;5.30;;
15567;SDS011;7885;42.596;23.044;2023-07-30T01:32:57;9.10;;;5.00;;
15567;SDS011;7885;42.596;23.044;2023-07-30T01:35:25;10.83;;;5.47;;
15567;SDS011;7885;42.596;23.044;2023-07-30T01:37:53;7.20;;;5.13;;
15567;SDS011;7885;42.596;23.044;2023-07-30T01:40:22;7.43;;;4.87;;
15567;SDS011;7885;42.596;23.044;2023-07-30T01:42:49;9.63;;;4.93;;
15567;SDS011;7885;42.596;23.044;2023-07-30T01:45:16;8.20;;;5.10;;
15567;SDS011;7885;42.596;23.044;2023-07-30T01:47:44;13.20;;;5.60;;
15567;SDS011;7885;42.596;23.044;2023-07-30T01:50:10;11.17;;;5.40;;
15567;SDS011;7885;42.596;23.044;2023-07-30T01:52:37;10.57;;;5.23;;
15567;SDS011;7885;42.596;23.044;2023-07-30T01:55:04;10.57;;;5.63;;
15567;SDS011;7885;42.596;23.044;2023-07-30T01:57:33;7.37;;;5.80;;
15567;SDS011;7885;42.596;23.044;2023-07-30T01:59:59;16.83;;;6.37;;
15567;SDS011;7885;42.596;23.044;2023-07-30T02:02:26;13.07;;;6.27;;
15567;SDS011;7885;42.596;23.044;2023-07-30T02:04:53;11.90;;;5.93;;
15567;SDS011;7885;42.596;23.044;2023-07-30T02:07:20;9.07;;;5.60;;
15567;SDS011;7885;42.596;23.044;2023-07-30T02:09:46;12.07;;;6.10;;
15567;SDS011;7885;42.596;23.044;2023-07-30T02:12:13;14.37;;;6.37;;
15567;SDS011;7885;42.596;23.044;2023-07-30T02:14:41;8.33;;;6.20;;
15567;SDS011;7885;42.596;23.044;2023-07-30T02:17:08;12.83;;;6.80;;
15567;SDS011;7885;42.596;23.044;2023-07-30T02:19:34;10.13;;;6.50;;
15567;SDS011;7885;42.596;23.044;2023-07-30T02:22:01;18.60;;;7.83;;
15567;SDS011;7885;42.596;23.044;2023-07-30T02:24:28;14.50;;;6.60;;
15567;SDS011;7885;42.596;23.044;2023-07-30T02:26:54;18.20;;;7.80;;
15567;SDS011;7885;42.596;23.044;2023-07-30T02:29:21;15.70;;;8.10;;
15567;SDS011;7885;42.596;23.044;2023-07-30T02:31:49;10.93;;;6.80;;
15567;SDS011;7885;42.596;23.044;2023-07-30T02:34:16;10.23;;;5.23;;
15567;SDS011;7885;42.596;23.044;2023-07-30T02:36:43;11.93;;;6.07;;
15567;SDS011;7885;42.596;23.044;2023-07-30T02:39:09;11.80;;;5.33;;
15567;SDS011;7885;42.596;23.044;2023-07-30T02:41:36;8.07;;;5.27;;
15567;SDS011;7885;42.596;23.044;2023-07-30T02:44:03;10.83;;;4.67;;
15567;SDS011;7885;42.596;23.044;2023-07-30T02:46:30;6.77;;;4.10;;
15567;SDS011;7885;42.596;23.044;2023-07-30T02:48:58;9.80;;;5.40;;
15567;SDS011;7885;42.596;23.044;2023-07-30T02:51:24;8.23;;;4.97;;
15567;SDS011;7885;42.596;23.044;2023-07-30T02:53:51;9.20;;;5.10;;
15567;SDS011;7885;42.596;23.044;2023-07-30T02:56:22;13.63;;;5.00;;
15567;SDS011;7885;42.596;23.044;2023-07-30T02:58:49;8.43;;;5.10;;
15567;SDS011;7885;42.596;23.044;2023-07-30T03:01:15;11.97;;;5.33;;
15567;SDS011;7885;42.596;23.044;2023-07-30T03:03:42;10.47;;;5.27;;
15567;SDS011;7885;42.596;23.044;2023-07-30T03:06:10;13.47;;;4.90;;
15567;SDS011;7885;42.596;23.044;2023-07-30T03:08:37;14.33;;;4.73;;
15567;SDS011;7885;42.596;23.044;2023-07-30T03:11:04;7.27;;;4.50;;
15567;SDS011;7885;42.596;23.044;2023-07-30T03:13:30;9.53;;;4.57;;
15567;SDS011;7885;42.596;23.044;2023-07-30T03:15:57;8.93;;;4.57;;
15567;SDS011;7885;42.596;23.044;2023-07-30T03:18:24;11.57;;;5.40;;
15567;SDS011;7885;42.596;23.044;2023-07-30T03:20:50;6.30;;;5.13;;
15567;SDS011;7885;42.596;23.044;2023-07-30T03:23:18;8.00;;;5.10;;
15567;SDS011;7885;42.596;23.044;2023-07-30T03:25:45;11.23;;;5.13;;
15567;SDS011;7885;42.596;23.044;2023-07-30T03:28:12;10.27;;;5.20;;
15567;SDS011;7885;42.596;23.044;2023-07-30T03:30:38;6.53;;;4.87;;
15567;SDS011;7885;42.596;23.044;2023-07-30T03:33:05;6.67;;;4.67;;
15567;SDS011;7885;42.596;23.044;2023-07-30T03:35:32;8.37;;;5.30;;
15567;SDS011;7885;42.596;23.044;2023-07-30T03:37:59;10.37;;;5.30;;
15567;SDS011;7885;42.596;23.044;2023-07-30T03:40:27;10.27;;;5.30;;
15567;SDS011;7885;42.596;23.044;2023-07-30T03:42:54;8.93;;;5.77;;
15567;SDS011;7885;42.596;23.044;2023-07-30T03:45:21;6.83;;;5.13;;
15567;SDS011;7885;42.596;23.044;2023-07-30T03:47:48;6.93;;;5.03;;
15567;SDS011;7885;42.596;23.044;2023-07-30T03:50:15;8.83;;;5.23;;
15567;SDS011;7885;42.596;23.044;2023-07-30T03:52:42;8.80;;;4.80;;
15567;SDS011;7885;42.596;23.044;2023-07-30T03:55:08;8.07;;;5.20;;
15567;SDS011;7885;42.596;23.044;2023-07-30T03:57:36;8.90;;;5.00;;
15567;SDS011;7885;42.596;23.044;2023-07-30T04:00:03;7.00;;;5.20;;
15567;SDS011;7885;42.596;23.044;2023-07-30T04:02:31;9.37;;;4.77;;
15567;SDS011;7885;42.596;23.044;2023-07-30T04:04:58;6.97;;;4.37;;
15567;SDS011;7885;42.596;23.044;2023-07-30T04:07:25;9.77;;;4.97;;
15567;SDS011;7885;42.596;23.044;2023-07-30T04:09:51;9.90;;;5.03;;
15567;SDS011;7885;42.596;23.044;2023-07-30T04:12:18;10.67;;;5.53;;
15567;SDS011;7885;42.596;23.044;2023-07-30T04:14:48;9.13;;;4.97;;
15567;SDS011;7885;42.596;23.044;2023-07-30T04:17:14;9.23;;;5.53;;
15567;SDS011;7885;42.596;23.044;2023-07-30T04:19:41;6.80;;;5.13;;
15567;SDS011;7885;42.596;23.044;2023-07-30T04:22:08;9.87;;;5.30;;
15567;SDS011;7885;42.596;23.044;2023-07-30T04:24:34;13.77;;;5.20;;
15567;SDS011;7885;42.596;23.044;2023-07-30T04:27:01;9.33;;;5.30;;
15567;SDS011;7885;42.596;23.044;2023-07-30T04:29:28;13.90;;;5.40;;
15567;SDS011;7885;42.596;23.044;2023-07-30T04:31:56;10.80;;;6.13;;
15567;SDS011;7885;42.596;23.044;2023-07-30T04:34:23;15.60;;;5.87;;
15567;SDS011;7885;42.596;23.044;2023-07-30T04:36:50;12.13;;;5.90;;
15567;SDS011;7885;42.596;23.044;2023-07-30T04:39:16;16.57;;;5.80;;
15567;SDS011;7885;42.596;23.044;2023-07-30T04:41:43;15.17;;;5.97;;
15567;SDS011;7885;42.596;23.044;2023-07-30T04:44:10;15.43;;;6.23;;
15567;SDS011;7885;42.596;23.044;2023-07-30T04:46:36;16.33;;;6.60;;
15567;SDS011;7885;42.596;23.044;2023-07-30T04:49:04;16.77;;;7.13;;
15567;SDS011;7885;42.596;23.044;2023-07-30T04:51:31;16.93;;;6.53;;
15567;SDS011;7885;42.596;23.044;2023-07-30T04:53:58;15.20;;;6.80;;
15567;SDS011;7885;42.596;23.044;2023-07-30T05:03:14;20.73;;;7.33;;
15567;SDS011;7885;42.596;23.044;2023-07-30T05:05:42;19.20;;;7.77;;
15567;SDS011;7885;42.596;23.044;2023-07-30T05:08:08;30.57;;;8.37;;
15567;SDS011;7885;42.596;23.044;2023-07-30T05:10:35;19.53;;;8.60;;
15567;SDS011;7885;42.596;23.044;2023-07-30T05:13:02;20.17;;;8.57;;
15567;SDS011;7885;42.596;23.044;2023-07-30T05:15:29;22.10;;;8.10;;
15567;SDS011;7885;42.596;23.044;2023-07-30T05:17:55;23.17;;;7.73;;
15567;SDS011;7885;42.596;23.044;2023-07-30T05:20:22;23.30;;;7.80;;
15567;SDS011;7885;42.596;23.044;2023-07-30T05:22:50;23.27;;;7.67;;
15567;SDS011;7885;42.596;23.044;2023-07-30T05:25:17;15.10;;;7.07;;
15567;SDS011;7885;42.596;23.044;2023-07-30T05:27:44;16.67;;;6.43;;
15567;SDS011;7885;42.596;23.044;2023-07-30T05:30:11;17.37;;;6.50;;
15567;SDS011;7885;42.596;23.044;2023-07-30T05:32:37;13.67;;;5.60;;
15567;SDS011;7885;42.596;23.044;2023-07-30T05:35:04;11.00;;;5.00;;
15567;SDS011;7885;42.596;23.044;2023-07-30T05:37:32;8.93;;;4.93;;
15567;SDS011;7885;42.596;23.044;2023-07-30T05:40:00;12.57;;;5.47;;
15567;SDS011;7885;42.596;23.044;2023-07-30T05:42:28;13.87;;;5.63;;
15567;SDS011;7885;42.596;23.044;2023-07-30T05:44:54;9.73;;;5.23;;
15567;SDS011;7885;42.596;23.044;2023-07-30T05:47:21;12.50;;;4.70;;
15567;SDS011;7885;42.596;23.044;2023-07-30T05:49:48;7.70;;;4.17;;
15567;SDS011;7885;42.596;23.044;2023-07-30T05:52:14;6.77;;;4.10;;
15567;SDS011;7885;42.596;23.044;2023-07-30T05:54:41;7.17;;;4.30;;
15567;SDS011;7885;42.596;23.044;2023-07-30T05:57:09;6.10;;;3.73;;
15567;SDS011;7885;42.596;23.044;2023-07-30T05:59:36;8.57;;;4.17;;
15567;SDS011;7885;42.596;23.044;2023-07-30T06:02:03;5.37;;;4.20;;
15567;SDS011;7885;42.596;23.044;2023-07-30T06:04:30;7.23;;;4.17;;
15567;SDS011;7885;42.596;23.044;2023-07-30T06:06:57;8.30;;;4.23;;
15567;SDS011;7885;42.596;23.044;2023-07-30T06:09:25;8.03;;;4.07;;
15567;SDS011;7885;42.596;23.044;2023-07-30T06:11:51;8.27;;;4.50;;
15567;SDS011;7885;42.596;23.044;2023-07-30T06:14:19;4.87;;;3.90;;
15567;SDS011;7885;42.596;23.044;2023-07-30T06:16:46;9.20;;;4.23;;
15567;SDS011;7885;42.596;23.044;2023-07-30T06:19:13;6.20;;;4.20;;
15567;SDS011;7885;42.596;23.044;2023-07-30T06:21:40;4.97;;;3.70;;
15567;SDS011;7885;42.596;23.044;2023-07-30T06:24:06;6.50;;;3.90;;
15567;SDS011;7885;42.596;23.044;2023-07-30T06:26:33;6.80;;;4.13;;
15567;SDS011;7885;42.596;23.044;2023-07-30T06:28:59;7.40;;;4.00;;
15567;SDS011;7885;42.596;23.044;2023-07-30T06:31:28;8.87;;;4.40;;
15567;SDS011;7885;42.596;23.044;2023-07-30T06:33:55;8.13;;;4.63;;
15567;SDS011;7885;42.596;23.044;2023-07-30T06:36:21;6.70;;;3.97;;
15567;SDS011;7885;42.596;23.044;2023-07-30T06:38:48;9.57;;;4.30;;
15567;SDS011;7885;42.596;23.044;2023-07-30T06:41:15;7.53;;;4.40;;
15567;SDS011;7885;42.596;23.044;2023-07-30T06:43:42;7.33;;;3.83;;
15567;SDS011;7885;42.596;23.044;2023-07-30T06:46:08;8.27;;;4.37;;
15567;SDS011;7885;42.596;23.044;2023-07-30T06:48:36;6.87;;;4.70;;
15567;SDS011;7885;42.596;23.044;2023-07-30T06:51:05;10.00;;;4.17;;
15567;SDS011;7885;42.596;23.044;2023-07-30T06:53:32;5.67;;;4.33;;
15567;SDS011;7885;42.596;23.044;2023-07-30T06:55:59;6.17;;;4.13;;
15567;SDS011;7885;42.596;23.044;2023-07-30T06:58:26;8.60;;;4.63;;
15567;SDS011;7885;42.596;23.044;2023-07-30T07:00:53;8.50;;;4.50;;
15567;SDS011;7885;42.596;23.044;2023-07-30T07:03:19;7.43;;;4.13;;
15567;SDS011;7885;42.596;23.044;2023-07-30T07:05:53;13.90;;;4.80;;
15567;SDS011;7885;42.596;23.044;2023-07-30T07:08:20;8.63;;;4.33;;
15567;SDS011;7885;42.596;23.044;2023-07-30T07:10:47;6.73;;;4.07;;
15567;SDS011;7885;42.596;23.044;2023-07-30T07:13:14;8.40;;;4.17;;
15567;SDS011;7885;42.596;23.044;2023-07-30T07:15:41;8.27;;;4.53;;
15567;SDS011;7885;42.596;23.044;2023-07-30T07:18:08;7.50;;;4.77;;
15567;SDS011;7885;42.596;23.044;2023-07-30T07:20:35;6.83;;;4.83;;
15567;SDS011;7885;42.596;23.044;2023-07-30T07:23:03;8.67;;;4.50;;
15567;SDS011;7885;42.596;23.044;2023-07-30T07:25:30;7.37;;;4.37;;
15567;SDS011;7885;42.596;23.044;2023-07-30T07:27:57;7.63;;;4.50;;
15567;SDS011;7885;42.596;23.044;2023-07-30T07:30:23;8.33;;;4.77;;
15567;SDS011;7885;42.596;23.044;2023-07-30T07:32:51;5.47;;;3.83;;
15567;SDS011;7885;42.596;23.044;2023-07-30T07:35:18;3.80;;;3.50;;
15567;SDS011;7885;42.596;23.044;2023-07-30T07:37:45;4.43;;;4.03;;
15567;SDS011;7885;42.596;23.044;2023-07-30T07:40:13;7.13;;;4.07;;
15567;SDS011;7885;42.596;23.044;2023-07-30T07:42:41;6.40;;;3.87;;
15567;SDS011;7885;42.596;23.044;2023-07-30T07:45:08;5.03;;;3.90;;
15567;SDS011;7885;42.596;23.044;2023-07-30T07:47:35;5.37;;;3.70;;
15567;SDS011;7885;42.596;23.044;2023-07-30T07:50:01;6.87;;;3.70;;
15567;SDS011;7885;42.596;23.044;2023-07-30T07:52:28;6.97;;;3.77;;
15567;SDS011;7885;42.596;23.044;2023-07-30T07:54:55;5.27;;;3.73;;
15567;SDS011;7885;42.596;23.044;2023-07-30T07:57:23;6.37;;;4.03;;
15567;SDS011;7885;42.596;23.044;2023-07-30T07:59:50;5.35;;;3.72;;
15567;SDS011;7885;42.596;23.044;2023-07-30T08:02:17;6.10;;;3.83;;
15567;SDS011;7885;42.596;23.044;2023-07-30T08:04:44;3.75;;;3.45;;
15567;SDS011;7885;42.596;23.044;2023-07-30T08:07:10;5.50;;;3.85;;
15567;SDS011;7885;42.596;23.044;2023-07-30T08:09:37;7.15;;;3.90;;
15567;SDS011;7885;42.596;23.044;2023-07-30T08:12:04;4.28;;;3.65;;
15567;SDS011;7885;42.596;23.044;2023-07-30T08:14:33;4.70;;;3.50;;
15567;SDS011;7885;42.596;23.044;2023-07-30T08:17:00;4.68;;;3.90;;
15567;SDS011;7885;42.596;23.044;2023-07-30T08:19:27;6.28;;;3.80;;
15567;SDS011;7885;42.596;23.044;2023-07-30T08:21:54;5.95;;;3.67;;
15567;SDS011;7885;42.596;23.044;2023-07-30T08:24:21;6.90;;;3.90;;
15567;SDS011;7885;42.596;23.044;2023-07-30T08:26:48;5.55;;;3.47;;
15567;SDS011;7885;42.596;23.044;2023-07-30T08:29:15;8.00;;;4.28;;
15567;SDS011;7885;42.596;23.044;2023-07-30T08:31:43;6.63;;;3.70;;
15567;SDS011;7885;42.596;23.044;2023-07-30T08:34:10;5.18;;;3.65;;
15567;SDS011;7885;42.596;23.044;2023-07-30T08:46:44;3.88;;;3.50;;
15567;SDS011;7885;42.596;23.044;2023-07-30T08:49:10;3.80;;;3.50;;
15567;SDS011;7885;42.596;23.044;2023-07-30T08:51:37;3.70;;;3.38;;
15567;SDS011;7885;42.596;23.044;2023-07-30T08:54:07;4.00;;;3.28;;
15567;SDS011;7885;42.596;23.044;2023-07-30T08:56:35;4.95;;;3.72;;
15567;SDS011;7885;42.596;23.044;2023-07-30T08:59:02;4.80;;;3.70;;
15567;SDS011;7885;42.596;23.044;2023-07-30T09:01:30;3.78;;;3.40;;
15567;SDS011;7885;42.596;23.044;2023-07-30T09:04:05;4.47;;;3.38;;
15567;SDS011;7885;42.596;23.044;2023-07-30T09:06:33;5.78;;;3.90;;
15567;SDS011;7885;42.596;23.044;2023-07-30T09:09:00;5.22;;;3.97;;
15567;SDS011;7885;42.596;23.044;2023-07-30T09:11:28;8.35;;;4.05;;
15567;SDS011;7885;42.596;23.044;2023-07-30T09:16:58;4.35;;;3.70;;
15567;SDS011;7885;42.596;23.044;2023-07-30T09:19:27;5.65;;;4.28;;
15567;SDS011;7885;42.596;23.044;2023-07-30T09:21:53;4.68;;;4.28;;
15567;SDS011;7885;42.596;23.044;2023-07-30T09:24:21;5.43;;;4.13;;
15567;SDS011;7885;42.596;23.044;2023-07-30T09:26:48;5.43;;;4.25;;
15567;SDS011;7885;42.596;23.044;2023-07-30T09:29:15;5.50;;;4.40;;
15567;SDS011;7885;42.596;23.044;2023-07-30T09:31:47;5.03;;;3.70;;
15567;SDS011;7885;42.596;23.044;2023-07-30T09:34:16;4.80;;;4.30;;
15567;SDS011;7885;42.596;23.044;2023-07-30T09:36:45;5.72;;;4.05;;
15567;SDS011;7885;42.596;23.044;2023-07-30T09:39:15;9.05;;;4.20;;
15567;SDS011;7885;42.596;23.044;2023-07-30T09:41:43;5.78;;;3.75;;
15567;SDS011;7885;42.596;23.044;2023-07-30T09:44:11;4.05;;;3.67;;
15567;SDS011;7885;42.596;23.044;2023-07-30T09:46:41;4.40;;;3.38;;
15567;SDS011;7885;42.596;23.044;2023-07-30T09:49:09;5.25;;;3.70;;
15567;SDS011;7885;42.596;23.044;2023-07-30T09:51:36;4.20;;;3.80;;
15567;SDS011;7885;42.596;23.044;2023-07-30T09:54:05;4.72;;;3.92;;
15567;SDS011;7885;42.596;23.044;2023-07-30T09:56:32;4.75;;;3.47;;
15567;SDS011;7885;42.596;23.044;2023-07-30T09:58:59;4.32;;;3.60;;
15567;SDS011;7885;42.596;23.044;2023-07-30T10:01:26;3.67;;;3.38;;
15567;SDS011;7885;42.596;23.044;2023-07-30T10:03:57;3.90;;;3.55;;
15567;SDS011;7885;42.596;23.044;2023-07-30T10:06:24;3.95;;;3.55;;
15567;SDS011;7885;42.596;23.044;2023-07-30T10:08:53;3.97;;;3.42;;
15567;SDS011;7885;42.596;23.044;2023-07-30T10:11:24;3.85;;;3.28;;
15567;SDS011;7885;42.596;23.044;2023-07-30T10:13:52;3.60;;;3.30;;
15567;SDS011;7885;42.596;23.044;2023-07-30T10:16:24;8.65;;;3.58;;
15567;SDS011;7885;42.596;23.044;2023-07-30T10:18:53;5.18;;;3.30;;
15567;SDS011;7885;42.596;23.044;2023-07-30T10:21:22;4.72;;;3.33;;
15567;SDS011;7885;42.596;23.044;2023-07-30T10:23:57;4.15;;;3.72;;
15567;SDS011;7885;42.596;23.044;2023-07-30T10:26:27;4.07;;;3.67;;
15567;SDS011;7885;42.596;23.044;2023-07-30T10:29:11;3.90;;;3.40;;
15567;SDS011;7885;42.596;23.044;2023-07-30T10:31:38;5.20;;;3.58;;
15567;SDS011;7885;42.596;23.044;2023-07-30T10:34:06;4.95;;;3.35;;
15567;SDS011;7885;42.596;23.044;2023-07-30T10:36:36;4.60;;;3.28;;
15567;SDS011;7885;42.596;23.044;2023-07-30T10:39:11;4.07;;;3.30;;
15567;SDS011;7885;42.596;23.044;2023-07-30T10:41:40;3.83;;;3.50;;
15567;SDS011;7885;42.596;23.044;2023-07-30T10:44:16;3.78;;;3.47;;
15567;SDS011;7885;42.596;23.044;2023-07-30T10:46:44;4.57;;;3.53;;
15567;SDS011;7885;42.596;23.044;2023-07-30T10:49:11;4.03;;;3.70;;
15567;SDS011;7885;42.596;23.044;2023-07-30T10:51:38;3.63;;;3.33;;
15567;SDS011;7885;42.596;23.044;2023-07-30T10:54:05;4.18;;;3.78;;
15567;SDS011;7885;42.596;23.044;2023-07-30T10:56:34;3.95;;;3.65;;
15567;SDS011;7885;42.596;23.044;2023-07-30T10:59:03;7.93;;;3.78;;
15567;SDS011;7885;42.596;23.044;2023-07-30T11:01:31;5.40;;;3.78;;
15567;SDS011;7885;42.596;23.044;2023-07-30T11:03:57;4.47;;;3.30;;
15567;SDS011;7885;42.596;23.044;2023-07-30T11:06:24;5.45;;;3.78;;
15567;SDS011;7885;42.596;23.044;2023-07-30T11:08:52;3.75;;;3.45;;
15567;SDS011;7885;42.596;23.044;2023-07-30T11:11:19;3.78;;;3.47;;
15567;SDS011;7885;42.596;23.044;2023-07-30T11:13:46;4.13;;;3.75;;
15567;SDS011;7885;42.596;23.044;2023-07-30T11:16:15;3.83;;;3.47;;
15567;SDS011;7885;42.596;23.044;2023-07-30T11:18:42;4.00;;;3.70;;
15567;SDS011;7885;42.596;23.044;2023-07-30T11:21:12;4.45;;;3.97;;
15567;SDS011;7885;42.596;23.044;2023-07-30T11:23:41;4.32;;;3.97;;
15567;SDS011;7885;42.596;23.044;2023-07-30T11:26:09;3.70;;;3.40;;
15567;SDS011;7885;42.596;23.044;2023-07-30T11:28:43;4.72;;;4.10;;
15567;SDS011;7885;42.596;23.044;2023-07-30T11:31:11;4.40;;;4.00;;
15567;SDS011;7885;42.596;23.044;2023-07-30T11:33:41;4.82;;;3.88;;
15567;SDS011;7885;42.596;23.044;2023-07-30T11:36:09;4.20;;;3.90;;
15567;SDS011;7885;42.596;23.044;2023-07-30T11:38:37;4.20;;;3.80;;
15567;SDS011;7885;42.596;23.044;2023-07-30T11:41:05;3.95;;;3.53;;
15567;SDS011;7885;42.596;23.044;2023-07-30T11:43:35;4.57;;;3.72;;
15567;SDS011;7885;42.596;23.044;2023-07-30T11:46:07;4.32;;;3.85;;
15567;SDS011;7885;42.596;23.044;2023-07-30T11:48:35;4.85;;;3.63;;
15567;SDS011;7885;42.596;23.044;2023-07-30T11:51:03;4.10;;;3.80;;
15567;SDS011;7885;42.596;23.044;2023-07-30T11:53:49;3.97;;;3.67;;
15567;SDS011;7885;42.596;23.044;2023-07-30T11:56:20;4.45;;;3.88;;
15567;SDS011;7885;42.596;23.044;2023-07-30T11:58:48;5.15;;;3.85;;
15567;SDS011;7885;42.596;23.044;2023-07-30T12:01:16;4.57;;;3.50;;
15567;SDS011;7885;42.596;23.044;2023-07-30T12:03:43;4.75;;;3.90;;
15567;SDS011;7885;42.596;23.044;2023-07-30T12:06:11;4.57;;;3.80;;
15567;SDS011;7885;42.596;23.044;2023-07-30T12:08:39;9.30;;;4.38;;
15567;SDS011;7885;42.596;23.044;2023-07-30T12:11:06;7.07;;;4.07;;
15567;SDS011;7885;42.596;23.044;2023-07-30T12:13:34;5.07;;;4.00;;
15567;SDS011;7885;42.596;23.044;2023-07-30T12:16:01;6.97;;;4.15;;
15567;SDS011;7885;42.596;23.044;2023-07-30T12:18:28;4.40;;;4.00;;
15567;SDS011;7885;42.596;23.044;2023-07-30T12:20:55;4.50;;;3.95;;
15567;SDS011;7885;42.596;23.044;2023-07-30T12:23:24;4.38;;;4.03;;
15567;SDS011;7885;42.596;23.044;2023-07-30T12:25:51;4.65;;;4.22;;
15567;SDS011;7885;42.596;23.044;2023-07-30T12:28:18;4.15;;;3.75;;
15567;SDS011;7885;42.596;23.044;2023-07-30T12:30:45;4.57;;;4.18;;
15567;SDS011;7885;42.596;23.044;2023-07-30T12:33:12;4.28;;;3.90;;
15567;SDS011;7885;42.596;23.044;2023-07-30T12:35:39;4.10;;;3.80;;
15567;SDS011;7885;42.596;23.044;2023-07-30T12:38:05;4.57;;;3.88;;
15567;SDS011;7885;42.596;23.044;2023-07-30T12:40:34;4.35;;;4.00;;
15567;SDS011;7885;42.596;23.044;2023-07-30T12:43:01;4.75;;;4.28;;
15567;SDS011;7885;42.596;23.044;2023-07-30T12:45:28;4.18;;;3.88;;
15567;SDS011;7885;42.596;23.044;2023-07-30T12:47:55;4.35;;;4.05;;
15567;SDS011;7885;42.596;23.044;2023-07-30T12:50:22;4.53;;;4.13;;
15567;SDS011;7885;42.596;23.044;2023-07-30T12:52:49;4.03;;;3.63;;
15567;SDS011;7885;42.596;23.044;2023-07-30T12:55:15;5.15;;;3.80;;
15567;SDS011;7885;42.596;23.044;2023-07-30T12:57:43;4.78;;;4.35;;
15567;SDS011;7885;42.596;23.044;2023-07-30T13:00:11;4.60;;;4.30;;
15567;SDS011;7885;42.596;23.044;2023-07-30T13:02:38;4.25;;;3.85;;
15567;SDS011;7885;42.596;23.044;2023-07-30T13:05:05;4.47;;;4.10;;
15567;SDS011;7885;42.596;23.044;2023-07-30T13:07:50;4.38;;;3.97;;
15567;SDS011;7885;42.596;23.044;2023-07-30T13:10:16;4.38;;;4.00;;
15567;SDS011;7885;42.596;23.044;2023-07-30T13:12:45;6.60;;;3.85;;
15567;SDS011;7885;42.596;23.044;2023-07-30T13:15:11;4.38;;;3.97;;
15567;SDS011;7885;42.596;23.044;2023-07-30T13:17:38;4.95;;;4.43;;
15567;SDS011;7885;42.596;23.044;2023-07-30T13:20:05;4.22;;;3.83;;
15567;SDS011;7885;42.596;23.044;2023-07-30T13:22:33;4.32;;;3.97;;
15567;SDS011;7885;42.596;23.044;2023-07-30T13:24:59;4.43;;;4.00;;
15567;SDS011;7885;42.596;23.044;2023-07-30T13:27:26;4.38;;;4.07;;
15567;SDS011;7885;42.596;23.044;2023-07-30T13:29:54;4.10;;;3.80;;
15567;SDS011;7885;42.596;23.044;2023-07-30T13:32:21;4.30;;;3.97;;
15567;SDS011;7885;42.596;23.044;2023-07-30T13:34:47;5.22;;;4.10;;
15567;SDS011;7885;42.596;23.044;2023-07-30T13:37:14;4.50;;;4.05;;
15567;SDS011;7885;42.596;23.044;2023-07-30T13:39:41;11.13;;;4.50;;
15567;SDS011;7885;42.596;23.044;2023-07-30T13:42:07;4.60;;;4.03;;
15567;SDS011;7885;42.596;23.044;2023-07-30T13:44:34;4.28;;;3.88;;
15567;SDS011;7885;42.596;23.044;2023-07-30T13:47:02;4.38;;;3.97;;
15567;SDS011;7885;42.596;23.044;2023-07-30T13:49:29;4.75;;;4.03;;
15567;SDS011;7885;42.596;23.044;2023-07-30T13:51:56;4.25;;;3.90;;
15567;SDS011;7885;42.596;23.044;2023-07-30T13:54:22;4.30;;;4.00;;
15567;SDS011;7885;42.596;23.044;2023-07-30T13:56:49;4.30;;;3.92;;
15567;SDS011;7885;42.596;23.044;2023-07-30T13:59:16;3.95;;;3.65;;
15567;SDS011;7885;42.596;23.044;2023-07-30T14:01:43;4.50;;;4.10;;
15567;SDS011;7885;42.596;23.044;2023-07-30T14:04:11;4.50;;;4.10;;
15567;SDS011;7885;42.596;23.044;2023-07-30T14:06:38;4.30;;;4.00;;
15567;SDS011;7885;42.596;23.044;2023-07-30T14:09:04;4.78;;;4.30;;
15567;SDS011;7885;42.596;23.044;2023-07-30T14:11:31;6.07;;;3.90;;
15567;SDS011;7885;42.596;23.044;2023-07-30T14:13:58;4.72;;;4.32;;
15567;SDS011;7885;42.596;23.044;2023-07-30T14:16:24;4.30;;;3.97;;
15567;SDS011;7885;42.596;23.044;2023-07-30T14:18:52;4.35;;;3.85;;
15567;SDS011;7885;42.596;23.044;2023-07-30T14:21:20;4.25;;;3.92;;
15567;SDS011;7885;42.596;23.044;2023-07-30T14:23:46;4.10;;;3.70;;
15567;SDS011;7885;42.596;23.044;2023-07-30T14:26:13;9.05;;;4.07;;
15567;SDS011;7885;42.596;23.044;2023-07-30T14:28:40;4.32;;;4.00;;
15567;SDS011;7885;42.596;23.044;2023-07-30T14:31:06;4.28;;;3.88;;
15567;SDS011;7885;42.596;23.044;2023-07-30T14:33:33;4.20;;;3.90;;
15567;SDS011;7885;42.596;23.044;2023-07-30T14:36:00;4.07;;;3.78;;
15567;SDS011;7885;42.596;23.044;2023-07-30T14:38:29;4.43;;;4.03;;
15567;SDS011;7885;42.596;23.044;2023-07-30T14:40:59;4.40;;;4.10;;
15567;SDS011;7885;42.596;23.044;2023-07-30T14:43:26;4.47;;;4.07;;
15567;SDS011;7885;42.596;23.044;2023-07-30T14:45:53;4.30;;;3.90;;
15567;SDS011;7885;42.596;23.044;2023-07-30T14:48:19;4.30;;;4.00;;
15567;SDS011;7885;42.596;23.044;2023-07-30T14:50:46;4.30;;;4.00;;
15567;SDS011;7885;42.596;23.044;2023-07-30T14:53:13;4.80;;;4.40;;
15567;SDS011;7885;42.596;23.044;2023-07-30T14:55:41;4.03;;;3.70;;
15567;SDS011;7885;42.596;23.044;2023-07-30T14:58:07;4.40;;;3.80;;
15567;SDS011;7885;42.596;23.044;2023-07-30T15:00:35;5.30;;;4.80;;
15567;SDS011;7885;42.596;23.044;2023-07-30T15:03:02;4.60;;;4.20;;
15567;SDS011;7885;42.596;23.044;2023-07-30T15:05:29;4.53;;;4.13;;
15567;SDS011;7885;42.596;23.044;2023-07-30T15:07:57;4.40;;;4.00;;